• Join FlightAware (Why Join?)
  • Login
  • US Flag 
03:01AM EDT


 

Airport Tracker/Info


-or-


 

Live Flight TrackerFlight Track Log ✈ RPA3331 ✈ 18-Aug-2013 ✈ KDCA - KMSY

Flight Track Log - Related Links

Times and Time Zones

All times are in EDT time to prevent confusion due to time zone crossing. See the RPA3331 flight status page for this flight to view local times or setup timezone preferences in your user account.

Time Position Orientation Groundspeed Altitude Reporting Facility
EDT Latitude Longitude Course Direction KTS MPH feet Rate Location/Type
04:13PM 38.9000 -77.0667 237° Southwest 180 207 1,900  Level Potomac TRACON
04:14PM 38.9333 -77.1167 311° West 252 290 4,000 2,760 Climbing Potomac TRACON
04:15PM 38.6665 -77.3795 234° Southwest  Level FlightAware Approximate
04:15PM 39.0000 -77.2000 316° Northwest 284 327 7,500  Level Potomac TRACON
04:16PM 38.6065 -77.4971 247° West  Level FlightAware Approximate
04:16PM 38.9833 -77.2833 256° West 293 337 10,700  Level Potomac TRACON
04:17PM 38.5558 -77.6218 237° Southwest  Level FlightAware Approximate
04:17PM 38.9167 -77.3500 218° Southwest 308 354 13,000  Level Potomac TRACON
04:18PM 38.4907 -77.7354 237° Southwest  Level FlightAware Approximate
04:18PM 38.8500 -77.4167 218° Southwest 322 371 15,500  Level Potomac TRACON
04:20PM 38.6825 -77.5675 215° Southwest 329 379 20,100 2,040 Climbing Washington Center
04:21PM 38.6061 -77.6372 216° Southwest 334 384 22,100 1,860 Climbing Washington Center
04:22PM 38.5342 -77.7069 217° Southwest 340 391 23,800 1,500 Climbing Washington Center
04:23PM 38.4719 -77.7956 228° Southwest 340 391 25,200 1,320 Climbing Washington Center
04:24PM 38.4158 -77.9025 236° Southwest 346 398 26,500 1,320 Climbing Washington Center
04:25PM 38.3617 -78.0067 236° Southwest 357 411 27,900 1,200 Climbing Washington Center
04:26PM 38.3031 -78.1133 235° Southwest 364 419 28,900 960 Climbing Washington Center
04:27PM 38.2467 -78.2225 237° Southwest 370 426 29,900 840 Climbing Washington Center
04:28PM 38.2008 -78.3106 237° Southwest 370 426 30,700 900 Climbing Washington Center
04:29PM 38.1478 -78.4381 242° Southwest 370 426 31,800 1,140 Climbing Washington Center
04:30PM 38.1094 -78.5581 248° West 370 426 33,000 1,080 Climbing Washington Center
04:31PM 38.0669 -78.6778 246° West 370 426 34,000 1,020 Climbing Washington Center
04:32PM 37.9953 -78.7853 230° Southwest 370 426 35,100 960 Climbing Washington Center
04:33PM 37.9342 -78.8828 232° Southwest 370 426 36,000 420 Climbing Washington Center
04:34PM 37.8856 -78.9858 239° Southwest 359 413 36,000  Level Washington Center
04:35PM 37.8403 -79.1022 244° Southwest 359 413 36,000  Level Washington Center
04:36PM 37.8039 -79.2031 245° Southwest 359 413 36,000  Level Washington Center
04:37PM 37.7608 -79.3167 244° Southwest 359 413 36,000  Level Washington Center
04:38PM 37.7219 -79.4275 246° West 359 413 36,000  Level Washington Center
04:39PM 37.6722 -79.5483 243° Southwest 354 407 36,000  Level Washington Center
04:40PM 37.6333 -79.6486 244° Southwest 354 407 36,000  Level Washington Center
04:41PM 37.5872 -79.7747 245° Southwest 354 407 36,000  Level Washington Center
04:42PM 37.5458 -79.8797 244° Southwest 365 420 36,000  Level Washington Center
04:43PM 37.5044 -79.9900 245° Southwest 371 427 36,000  Level Washington Center
04:45PM 37.4261 -80.1844 243° Southwest 349 402 36,000  Level Atlanta Center
04:46PM 37.3875 -80.2831 244° Southwest 349 402 36,000  Level Atlanta Center
04:47PM 37.3361 -80.3822 237° Southwest 349 402 36,000  Level Atlanta Center
04:48PM 37.2831 -80.4864 237° Southwest 354 407 36,000  Level Atlanta Center
04:49PM 37.2236 -80.5958 236° Southwest 354 407 36,000  Level Atlanta Center
04:50PM 37.1722 -80.6969 237° Southwest 354 407 36,000  Level Atlanta Center
04:51PM 37.1164 -80.7983 235° Southwest 354 407 36,000  Level Atlanta Center
04:52PM 37.0628 -80.9019 237° Southwest 354 407 36,000  Level Atlanta Center
04:53PM 37.0131 -80.9922 235° Southwest 354 407 36,000  Level Atlanta Center
04:54PM 36.9614 -81.0956 238° Southwest 354 407 36,000  Level Atlanta Center
04:55PM 36.9075 -81.1936 236° Southwest 354 407 36,000  Level Atlanta Center
04:56PM 36.8533 -81.2967 237° Southwest 354 407 36,000  Level Atlanta Center
04:57PM 36.7953 -81.4050 236° Southwest 354 407 36,000  Level Atlanta Center
04:58PM 36.7475 -81.5050 239° Southwest 344 396 36,000  Level Atlanta Center
04:59PM 36.6969 -81.5922 234° Southwest 352 405 36,000  Level Atlanta Center
05:00PM 36.6447 -81.6919 237° Southwest 352 405 36,000  Level Atlanta Center
05:01PM 36.5883 -81.7919 235° Southwest 352 405 36,000  Level Atlanta Center
05:02PM 36.5336 -81.8892 235° Southwest 352 405 36,000  Level Atlanta Center
05:03PM 36.4792 -81.9886 236° Southwest 352 405 36,000  Level Atlanta Center
05:04PM 36.4244 -82.0881 236° Southwest 352 405 36,000  Level Atlanta Center
05:05PM 36.3656 -82.1978 236° Southwest 352 405 36,000  Level Atlanta Center
05:06PM 36.3128 -82.2994 237° Southwest 352 405 36,000  Level Atlanta Center
05:07PM 36.2558 -82.3961 234° Southwest 352 405 36,000  Level Atlanta Center
05:08PM 36.2008 -82.4950 235° Southwest 352 405 36,000  Level Atlanta Center
05:09PM 36.1458 -82.5936 235° Southwest 352 405 36,000  Level Atlanta Center
05:10PM 36.0906 -82.6922 235° Southwest 357 411 36,000  Level Atlanta Center
05:11PM 36.0372 -82.7908 236° Southwest 357 411 36,000  Level Atlanta Center
05:12PM 35.9800 -82.8892 234° Southwest 351 404 36,000  Level Atlanta Center
05:13PM 35.9286 -82.9872 237° Southwest 351 404 36,000  Level Atlanta Center
05:14PM 35.8753 -83.0828 235° Southwest 351 404 36,000  Level Atlanta Center
05:15PM 35.8194 -83.1808 235° Southwest 351 404 36,000  Level Atlanta Center
05:16PM 35.7722 -83.2633 235° Southwest 351 404 36,000  Level Atlanta Center
05:17PM 35.7206 -83.3583 236° Southwest 345 397 36,000  Level Atlanta Center
05:18PM 35.6667 -83.4483 234° Southwest 340 391 36,000  Level Atlanta Center
05:19PM 35.6131 -83.5406 234° Southwest 335 386 36,000  Level Atlanta Center
05:20PM 35.5611 -83.6353 236° Southwest 335 386 36,000  Level Atlanta Center
05:21PM 35.5072 -83.7275 234° Southwest 335 386 36,000  Level Atlanta Center
05:22PM 35.4553 -83.8194 235° Southwest 335 386 36,000  Level Atlanta Center
05:23PM 35.4031 -83.9114 235° Southwest 335 386 36,000  Level Atlanta Center
05:24PM 35.3489 -84.0031 234° Southwest 335 386 36,000  Level Atlanta Center
05:25PM 35.2969 -84.0972 236° Southwest 335 386 36,000  Level Atlanta Center
05:26PM 35.2425 -84.1914 235° Southwest 340 391 36,000  Level Atlanta Center
05:27PM 35.1881 -84.2803 233° Southwest 340 391 36,000  Level Atlanta Center
05:28PM 35.1358 -84.3739 236° Southwest 340 391 36,000  Level Atlanta Center
05:29PM 35.0811 -84.4653 234° Southwest 340 391 36,000  Level Atlanta Center
05:30PM 35.0286 -84.5561 235° Southwest 335 386 36,000  Level Atlanta Center
05:31PM 34.9761 -84.6497 236° Southwest 335 386 36,000  Level Atlanta Center
05:32PM 34.9192 -84.7431 233° Southwest 335 386 36,000  Level Atlanta Center
05:33PM 34.8603 -84.8411 234° Southwest 335 386 36,000  Level Atlanta Center
05:34PM 34.8053 -84.9342 234° Southwest 340 391 36,000  Level Atlanta Center
05:35PM 34.7525 -85.0247 235° Southwest 340 391 36,000  Level Atlanta Center
05:36PM 34.6953 -85.1200 234° Southwest 340 391 36,000  Level Atlanta Center
05:37PM 34.6422 -85.2103 234° Southwest 340 391 36,000  Level Atlanta Center
05:38PM 34.5850 -85.3003 232° Southwest 340 391 36,000  Level Atlanta Center
05:39PM 34.5319 -85.3953 236° Southwest 340 391 36,000  Level Atlanta Center
05:40PM 34.4786 -85.4853 234° Southwest 340 391 36,000  Level Atlanta Center
05:41PM 34.4214 -85.5747 232° Southwest 340 391 36,000  Level Atlanta Center
05:42PM 34.3678 -85.6669 235° Southwest 335 386 36,000  Level Atlanta Center
05:43PM 34.3125 -85.7589 234° Southwest 335 386 36,000  Level Atlanta Center
05:44PM 34.2547 -85.8433 230° Southwest 340 391 36,000  Level Atlanta Center
05:45PM 34.1992 -85.9350 234° Southwest 334 384 36,000  Level Atlanta Center
05:46PM 34.1433 -86.0292 234° Southwest 341 392 36,000  Level Atlanta Center
05:47PM 34.0856 -86.1181 232° Southwest 341 392 36,000  Level Atlanta Center
05:48PM 34.0297 -86.2119 234° Southwest 341 392 36,000  Level Atlanta Center
05:49PM 33.9717 -86.3033 233° Southwest 341 392 36,000  Level Atlanta Center
05:50PM 33.9158 -86.3944 234° Southwest 341 392 36,000  Level Atlanta Center
05:51PM 33.8575 -86.4878 233° Southwest 341 392 36,000  Level Atlanta Center
05:52PM 33.8014 -86.5786 233° Southwest 346 398 36,000  Level Atlanta Center
05:53PM 33.7453 -86.6719 234° Southwest 346 398 36,000  Level Atlanta Center
05:54PM 33.6869 -86.7650 233° Southwest 351 404 36,000  Level Atlanta Center
05:55PM 33.6414 -86.8383 233° Southwest 351 404 36,000  Level Atlanta Center
05:56PM 33.5786 -86.9386 233° Southwest 351 404 36,000  Level Atlanta Center
05:57PM 33.5200 -87.0314 233° Southwest 351 404 36,000  Level Atlanta Center
05:58PM 33.4614 -87.1239 233° Southwest 351 404 36,000  Level Atlanta Center
05:59PM 33.4025 -87.2164 233° Southwest 351 404 36,000  Level Atlanta Center
06:00PM 33.3461 -87.3064 233° Southwest 351 404 36,000  Level Atlanta Center
06:02PM 33.2094 -87.5217 233° Southwest 351 404 36,000  Level Memphis Center
06:03PM 33.1489 -87.6131 232° Southwest 351 404 36,000  Level Memphis Center
06:04PM 33.0903 -87.7067 233° Southwest 351 404 36,000  Level Memphis Center
06:05PM 33.0297 -87.8000 232° Southwest 351 404 36,000  Level Memphis Center
06:06PM 32.9689 -87.8958 233° Southwest 351 404 36,000  Level Memphis Center
06:07PM 32.9122 -87.9867 233° Southwest 351 404 36,000  Level Memphis Center
06:08PM 32.8536 -88.0797 233° Southwest 351 404 36,000  Level Memphis Center
06:09PM 32.7819 -88.1681 226° Southwest 356 410 36,000  Level Memphis Center
06:10PM 32.7147 -88.2536 227° Southwest 356 410 36,000  Level Memphis Center
06:11PM 32.6450 -88.3342 224° Southwest 356 410 36,000  Level Memphis Center
06:12PM 32.5775 -88.4169 226° Southwest 356 410 36,000  Level Memphis Center
06:13PM 32.5117 -88.4925 224° Southwest 356 410 36,000  Level Memphis Center
06:14PM 32.4442 -88.5775 227° Southwest 356 410 36,000  Level Memphis Center
06:15PM 32.3722 -88.6600 224° Southwest 356 410 36,000 -480 Level Memphis Center
06:16PM 32.3044 -88.7425 226° Southwest 356 410 35,100 -540 Descending Memphis Center
06:17PM 32.2344 -88.8247 225° Southwest 356 410 35,000 -300 Descending Memphis Center
06:18PM 32.1667 -88.9094 227° Southwest 356 410 34,500 -540 Descending Memphis Center
06:19PM 32.0964 -88.9889 224° Southwest 356 410 34,000 -300 Descending Memphis Center
06:20PM 32.0325 -89.0658 226° Southwest 351 404 34,000 -360 Level Memphis Center
06:21PM 31.9667 -89.1453 226° Southwest 351 404 33,300 -1,260 Descending Memphis Center
06:22PM 31.8964 -89.2244 224° Southwest 351 404 31,500 -1,980 Descending Memphis Center
06:23PM 31.8436 -89.2850 224° Southwest 349 402 30,000 -1,920 Descending Houston Center
06:24PM 31.7742 -89.3672 225° Southwest 354 407 28,200 -1,020 Descending Houston Center
06:25PM 31.7067 -89.4450 224° Southwest 342 394 28,000 -240 Descending Houston Center
06:26PM 31.6403 -89.5178 223° Southwest 330 380 27,800 -1,140 Descending Houston Center
06:27PM 31.5467 -89.5783 209° Southwest 339 390 25,700 -1,920 Descending Houston Center
06:28PM 31.4619 -89.6308 208° Southwest 343 395 23,900 -1,800 Descending Houston Center
06:29PM 31.3786 -89.6831 208° Southwest 340 391 22,100 -1,800 Descending Houston Center
06:30PM 31.2950 -89.7356 208° Southwest 342 394 20,300 -1,740 Descending Houston Center
06:31PM 31.2142 -89.7864 208° Southwest 334 384 18,600 -1,800 Descending Houston Center
06:32PM 31.1206 -89.8444 208° Southwest 319 367 16,700 -1,740 Descending Houston Center
06:33PM 31.0456 -89.8908 208° Southwest 307 353 15,100 -1,620 Descending Houston Center
06:34PM 30.9708 -89.9372 208° Southwest 305 351 13,400 -1,560 Descending Houston Center
06:35PM 30.9078 -89.9764 208° Southwest 292 336 12,200 -1,260 Descending Houston Center
06:36PM 30.8328 -90.0233 208° Southwest 282 325 10,900 -900 Descending Houston Center
06:37PM 30.7581 -90.0700 208° Southwest 267 307 10,300 -1,080 Descending Houston Center
06:38PM 30.7036 -90.1072 210° Southwest 267 307 8,700 -1,620 Descending Houston Center
06:39PM 30.6247 -90.1497 205° Southwest 261 300 7,000 -1,560 Descending Houston Center
06:40PM 30.5578 -90.1767 199° South 256 295 5,600 -1,380 Descending Houston Center
06:41PM 30.4944 -90.2044 201° Southwest 250 288 4,200 -840 Descending Houston Center
06:42PM 30.4314 -90.2314 200° South 245 282 3,900 -180 Descending Houston Center
06:43PM 30.3692 -90.2575 200° South 242 278 3,900  Level Houston Center
06:44PM 30.2950 -90.2883 200° South 240 276 3,900 60 Level Houston Center
06:45PM 30.2369 -90.3131 200° South 224 258 4,100 -600 Climbing Houston Center
06:47PM 30.1800 -90.3361 199° South 224 258 2,700 -1,080 Descending Houston Center
06:48PM 30.1214 -90.3531 194° South 220 253 1,900 -480 Descending Houston Center
06:48PM 30.0608 -90.3658 190° South 211 243 1,800 -420 Descending Houston Center
06:50PM 30.0144 -90.3461 160° South 165 190 1,100 -660 Descending Houston Center
06:51PM 30.0006 -90.3033 111° Southeast 135 155 500 -600 Descending Houston Center
06:53PM 29.9934 -90.2580 128° Southeast  Level Estimated